Time;durP1;ratioP1;P1;durP2;ratioP2;P2;SDS_P1;SDS_P2;PMS_P1;PMS_P2;Temp;Humidity;BMP_temperature;BMP_pressure;BME280_temperature;BME280_humidity;BME280_pressure;Samples;Min_cycle;Max_cycle;Signal;HPM_P1;HPM_P2
2022/07/21 00:00:48;;;;;;;12.23;4.43;;;;;;;23.51;43.72;100340.53;123535;1098;104311;-77
2022/07/21 00:03:20;;;;;;;7.50;4.30;;;;;;;23.49;44.34;100340.56;123501;1099;104421;-77
2022/07/21 00:05:51;;;;;;;6.97;4.00;;;;;;;23.48;44.01;100345.95;123571;1099;104322;-77
2022/07/21 00:08:23;;;;;;;14.00;4.67;;;;;;;23.45;43.97;100343.33;123469;1099;104335;-77
2022/07/21 00:10:55;;;;;;;9.27;4.37;;;;;;;23.43;43.90;100347.84;123485;1099;104261;-77
2022/07/21 00:13:27;;;;;;;8.67;4.33;;;;;;;23.39;43.99;100346.13;123612;1099;104338;-78
2022/07/21 00:15:59;;;;;;;10.15;4.40;;;;;;;23.33;44.44;100349.83;123494;1099;104424;-77
2022/07/21 00:18:30;;;;;;;8.10;4.10;;;;;;;23.27;44.95;100347.27;123460;1099;104319;-78
2022/07/21 00:21:03;;;;;;;10.90;4.30;;;;;;;23.22;44.48;100343.77;123458;1098;104315;-77
2022/07/21 00:23:34;;;;;;;10.93;4.30;;;;;;;23.18;44.66;100353.67;123607;1099;104264;-77
2022/07/21 00:26:06;;;;;;;9.33;4.70;;;;;;;23.16;44.46;100352.82;123587;1099;104268;-77
2022/07/21 00:28:38;;;;;;;8.97;4.40;;;;;;;23.13;45.10;100356.42;123468;1099;104357;-77
2022/07/21 00:31:09;;;;;;;10.35;4.50;;;;;;;23.10;44.70;100352.94;123558;1099;104367;-77
2022/07/21 00:33:41;;;;;;;8.50;4.55;;;;;;;23.08;45.20;100354.73;123528;1099;104239;-77
2022/07/21 00:36:13;;;;;;;10.93;4.37;;;;;;;23.05;44.64;100354.79;123551;1099;104284;-77
2022/07/21 00:38:44;;;;;;;12.17;4.63;;;;;;;23.03;45.23;100364.61;123481;1099;104335;-76
2022/07/21 00:41:16;;;;;;;8.60;4.60;;;;;;;22.98;45.07;100362.92;123506;1099;107019;-77
2022/07/21 00:43:48;;;;;;;9.10;5.23;;;;;;;22.96;44.96;100359.37;123544;1099;104274;-76
2022/07/21 00:46:22;;;;;;;9.67;4.53;;;;;;;22.93;45.38;100364.77;123329;1098;104309;-77
2022/07/21 00:48:54;;;;;;;11.20;4.83;;;;;;;22.91;45.17;100366.61;123493;1098;104310;-77
2022/07/21 00:51:25;;;;;;;9.43;5.30;;;;;;;22.88;45.62;100366.66;123544;1099;104329;-77
2022/07/21 00:53:57;;;;;;;12.27;5.00;;;;;;;22.88;45.56;100361.30;123574;1099;104322;-76
2022/07/21 00:56:28;;;;;;;16.77;5.23;;;;;;;22.85;45.33;100360.48;123517;1099;104248;-77
2022/07/21 00:59:00;;;;;;;14.33;5.07;;;;;;;22.83;45.26;100368.53;123487;1099;104941;-77
2022/07/21 01:01:32;;;;;;;11.37;5.23;;;;;;;22.82;45.60;100368.56;123469;1099;104718;-77
2022/07/21 01:04:04;;;;;;;8.00;4.70;;;;;;;22.78;45.59;100379.31;123544;1099;104281;-78
2022/07/21 01:06:36;;;;;;;11.10;5.47;;;;;;;22.78;45.75;100381.08;123455;1099;104377;-77
2022/07/21 01:09:08;;;;;;;11.50;5.10;;;;;;;22.79;45.39;100382.86;123591;1099;104223;-76
2022/07/21 01:11:40;;;;;;;14.25;5.20;;;;;;;22.80;45.83;100379.28;123625;1098;104210;-77
2022/07/21 01:14:12;;;;;;;11.50;5.23;;;;;;;22.81;45.58;100378.36;123539;1099;104175;-76
2022/07/21 01:16:44;;;;;;;13.30;5.40;;;;;;;22.77;45.85;100380.21;123494;1099;104370;-77
2022/07/21 01:19:16;;;;;;;8.17;4.90;;;;;;;22.74;46.13;100384.73;123497;1098;104414;-77
2022/07/21 01:21:50;;;;;;;9.63;5.40;;;;;;;22.74;45.53;100387.41;123546;1099;104759;-77
2022/07/21 01:24:21;;;;;;;10.53;5.40;;;;;;;22.76;45.43;100382.91;123648;1099;104264;-77
2022/07/21 01:26:55;;;;;;;12.43;5.13;;;;;;;22.73;45.63;100390.98;123515;1099;104370;-77
2022/07/21 01:29:27;;;;;;;13.18;5.75;;;;;;;22.66;46.17;100390.20;123588;1099;104166;-77
2022/07/21 01:31:59;;;;;;;10.47;4.97;;;;;;;22.65;46.40;100383.08;123534;1099;104402;-76
2022/07/21 01:34:30;;;;;;;11.40;5.00;;;;;;;22.61;46.07;100398.30;123580;1099;104366;-77
2022/07/21 01:37:02;;;;;;;9.95;4.95;;;;;;;22.58;46.17;100398.34;123544;1099;104213;-77
2022/07/21 01:42:23;;;;;;;13.43;5.50;;;;;;;22.42;46.00;100394.13;123638;1099;118851;-78
2022/07/21 01:44:56;;;;;;;10.17;5.00;;;;;;;22.37;46.58;100401.34;123679;1099;104400;-77
2022/07/21 01:47:28;;;;;;;13.73;5.50;;;;;;;22.32;46.56;100405.88;123497;1099;104358;-76
2022/07/21 01:50:00;;;;;;;13.57;5.60;;;;;;;22.30;46.53;100408.57;123547;1099;104294;-77
2022/07/21 01:52:32;;;;;;;11.13;5.57;;;;;;;22.27;46.25;100408.58;123493;1099;104265;-77
2022/07/21 01:55:04;;;;;;;14.90;5.13;;;;;;;22.22;46.95;100407.73;123521;1099;104341;-77
2022/07/21 01:57:36;;;;;;;10.47;5.33;;;;;;;22.18;47.24;100414.05;123511;1099;104351;-77
2022/07/21 02:00:10;;;;;;;9.67;5.53;;;;;;;22.13;46.43;100416.78;123553;1099;104267;-77
2022/07/21 02:02:45;;;;;;;11.87;5.27;;;;;;;22.07;47.52;100419.53;123491;1099;104312;-77
2022/07/21 02:05:17;;;;;;;10.80;5.60;;;;;;;22.06;46.90;100415.08;123636;1099;104306;-77
2022/07/21 02:07:49;;;;;;;12.23;5.30;;;;;;;21.99;47.10;100416.09;123515;1099;104268;-78
2022/07/21 02:10:20;;;;;;;11.75;5.30;;;;;;;21.95;47.53;100417.02;123610;1099;104271;-77
2022/07/21 02:12:52;;;;;;;12.03;5.60;;;;;;;21.89;47.40;100418.87;123636;1099;104310;-77
2022/07/21 02:15:23;;;;;;;14.53;5.80;;;;;;;21.82;46.92;100417.16;123551;1098;104262;-77
2022/07/21 02:17:55;;;;;;;10.27;4.97;;;;;;;21.77;47.09;100419.02;123532;1099;104236;-76
2022/07/21 02:20:27;;;;;;;11.47;5.50;;;;;;;21.73;47.00;100425.28;123555;1099;104781;-77
2022/07/21 02:22:59;;;;;;;10.00;5.17;;;;;;;21.70;47.21;100428.86;123488;1099;104290;-77
2022/07/21 02:25:30;;;;;;;17.63;5.80;;;;;;;21.68;47.21;100421.79;123557;1099;104230;-77
2022/07/21 02:28:02;;;;;;;11.50;4.87;;;;;;;21.65;47.50;100424.49;123751;1098;104303;-78
2022/07/21 02:30:34;;;;;;;13.30;5.60;;;;;;;21.59;48.00;100427.23;123958;1099;104297;-78
2022/07/21 02:33:06;;;;;;;13.67;5.43;;;;;;;21.49;48.15;100435.33;124077;1099;104162;-78
2022/07/21 02:35:39;;;;;;;12.80;5.35;;;;;;;21.44;47.99;100439.81;123979;1099;104367;-78
2022/07/21 02:38:11;;;;;;;11.97;5.50;;;;;;;21.43;48.65;100438.03;123948;1099;104377;-77
2022/07/21 02:40:43;;;;;;;11.30;5.20;;;;;;;21.38;48.78;100439.87;123835;1099;104290;-78
2022/07/21 02:43:15;;;;;;;12.43;5.50;;;;;;;21.34;48.15;100444.33;123755;1099;104213;-77
2022/07/21 02:45:46;;;;;;;15.47;5.67;;;;;;;21.33;48.04;100445.25;123538;1099;104341;-78
2022/07/21 02:48:18;;;;;;;12.53;5.27;;;;;;;21.27;48.86;100453.31;123528;1099;104502;-77
2022/07/21 02:50:49;;;;;;;9.43;5.17;;;;;;;21.25;48.27;100454.22;123481;1098;104237;-77
2022/07/21 02:53:23;;;;;;;14.57;5.67;;;;;;;21.18;48.56;100458.73;123471;1099;104366;-76
2022/07/21 02:55:55;;;;;;;12.60;5.62;;;;;;;21.13;49.24;100449.86;123598;1099;104692;-77
2022/07/21 02:58:28;;;;;;;15.90;5.90;;;;;;;21.09;48.90;100454.34;123779;1099;104217;-77
2022/07/21 03:01:02;;;;;;;13.62;4.92;;;;;;;21.03;48.76;100459.73;123552;1099;104245;-77
2022/07/21 03:03:36;;;;;;;16.07;5.90;;;;;;;20.99;49.46;100468.67;123480;1099;104632;-76
2022/07/21 03:06:08;;;;;;;12.93;5.27;;;;;;;20.93;49.67;100468.72;123509;1099;104290;-77
2022/07/21 03:08:39;;;;;;;10.33;5.23;;;;;;;20.89;49.34;100470.50;123511;1098;104322;-77
2022/07/21 03:11:11;;;;;;;12.63;5.70;;;;;;;20.87;49.63;100468.77;123419;1099;104406;-78
2022/07/21 03:13:43;;;;;;;14.80;6.05;;;;;;;20.86;50.15;100467.85;123557;1098;104505;-78
2022/07/21 03:16:14;;;;;;;12.23;5.00;;;;;;;20.85;50.16;100465.20;123560;1099;104245;-76
2022/07/21 03:18:46;;;;;;;12.00;5.47;;;;;;;20.83;50.06;100468.78;123549;1099;104220;-77
2022/07/21 03:21:18;;;;;;;14.40;5.43;;;;;;;20.82;49.46;100472.34;123541;1098;104338;-77
2022/07/21 03:23:49;;;;;;;14.33;5.20;;;;;;;20.82;49.30;100469.67;123652;1099;104340;-76
2022/07/21 03:26:21;;;;;;;13.70;5.40;;;;;;;20.82;50.30;100469.67;123530;1099;104328;-77
2022/07/21 03:28:52;;;;;;;11.73;5.60;;;;;;;20.82;49.56;100482.13;123782;1098;104264;-77
2022/07/21 03:31:24;;;;;;;18.25;5.60;;;;;;;20.79;50.43;100476.81;123657;1099;105453;-76
2022/07/21 03:33:55;;;;;;;13.67;5.70;;;;;;;20.79;51.05;100474.14;123661;1099;104213;-76
2022/07/21 03:36:27;;;;;;;11.93;4.80;;;;;;;20.77;51.03;100478.58;123832;1099;104368;-76
2022/07/21 03:38:59;;;;;;;12.35;5.20;;;;;;;20.76;50.47;100476.83;123822;1099;104411;-76
2022/07/21 03:41:30;;;;;;;14.97;6.00;;;;;;;20.80;50.08;100475.89;123816;1098;104267;-77
2022/07/21 03:44:02;;;;;;;11.57;5.50;;;;;;;20.83;51.16;100474.12;123575;1099;104194;-77
2022/07/21 03:46:34;;;;;;;13.13;5.40;;;;;;;20.88;50.58;100481.17;123613;1098;104364;-76
2022/07/21 03:49:05;;;;;;;14.80;5.70;;;;;;;20.93;51.07;100477.59;123581;1099;104274;-76
2022/07/21 03:51:37;;;;;;;15.37;5.30;;;;;;;20.94;50.85;100475.80;123645;1099;104403;-77
2022/07/21 03:54:08;;;;;;;14.40;5.37;;;;;;;21.00;50.99;100475.75;123673;1099;104322;-76
2022/07/21 03:56:40;;;;;;;13.30;5.47;;;;;;;21.06;50.67;100485.51;123975;1098;104389;-78
2022/07/21 03:59:11;;;;;;;11.00;5.23;;;;;;;21.08;50.15;100484.58;123924;1099;104203;-77
2022/07/21 04:01:43;;;;;;;10.23;4.50;;;;;;;21.07;50.16;100485.49;123765;1099;104271;-77
2022/07/21 04:04:15;;;;;;;10.00;4.80;;;;;;;21.09;50.06;100488.16;123900;1099;104195;-77
2022/07/21 04:06:46;;;;;;;12.05;5.50;;;;;;;21.07;50.37;100490.83;123727;1099;104702;-77
2022/07/21 04:09:18;;;;;;;13.10;4.83;;;;;;;21.07;49.73;100490.83;123628;1099;104344;-77
2022/07/21 04:11:50;;;;;;;15.03;5.63;;;;;;;21.07;50.13;100498.84;123625;1099;104246;-77
2022/07/21 04:14:21;;;;;;;16.83;4.97;;;;;;;21.06;49.94;100496.17;123754;1099;104318;-77
2022/07/21 04:16:53;;;;;;;9.67;5.13;;;;;;;21.05;50.35;100505.06;123619;1099;104344;-76
2022/07/21 04:19:25;;;;;;;13.20;4.90;;;;;;;21.07;49.15;100500.63;123710;1099;104354;-78
2022/07/21 04:21:57;;;;;;;12.73;5.07;;;;;;;21.09;49.71;100498.82;123422;1100;104227;-77
2022/07/21 04:24:28;;;;;;;14.90;4.90;;;;;;;21.12;50.08;100498.80;123718;1099;104245;-79
2022/07/21 04:27:00;;;;;;;15.57;5.40;;;;;;;21.16;49.65;100498.77;123850;1099;104243;-77
2022/07/21 04:29:32;;;;;;;13.23;4.73;;;;;;;21.22;49.76;100502.27;124000;1099;104437;-78
2022/07/21 04:32:03;;;;;;;12.67;4.93;;;;;;;21.27;49.91;100512.02;123758;1099;104339;-77
2022/07/21 04:34:35;;;;;;;13.03;5.00;;;;;;;21.33;49.45;100495.05;124023;1099;104312;-78
2022/07/21 04:37:07;;;;;;;14.25;5.30;;;;;;;21.34;49.51;100512.84;123984;1099;104246;-77
2022/07/21 04:39:38;;;;;;;12.00;4.90;;;;;;;21.30;49.86;100501.32;124203;1099;104386;-77
2022/07/21 04:42:10;;;;;;;13.17;5.10;;;;;;;21.28;49.08;100510.23;124296;1099;104267;-77
2022/07/21 04:44:42;;;;;;;12.60;5.03;;;;;;;21.26;50.21;100512.03;124004;1099;104351;-77
2022/07/21 04:47:14;;;;;;;14.23;4.93;;;;;;;21.28;49.31;100520.91;124047;1099;104326;-78
2022/07/21 04:49:45;;;;;;;11.80;4.73;;;;;;;21.28;49.60;100516.44;124252;1099;104300;-78
2022/07/21 04:52:17;;;;;;;14.85;5.00;;;;;;;21.28;49.48;100511.10;124062;1099;104230;-78
2022/07/21 04:54:49;;;;;;;10.83;4.90;;;;;;;21.29;49.10;100512.01;124033;1099;104454;-78
2022/07/21 04:57:22;;;;;;;11.55;5.17;;;;;;;21.28;48.93;100519.11;124071;1098;104256;-77
2022/07/21 04:59:53;;;;;;;14.63;5.87;;;;;;;21.31;49.79;100511.08;124145;1099;104216;-77
2022/07/21 05:02:30;;;;;;;9.90;5.00;;;;;;;21.31;49.49;100510.20;124616;1099;104213;-80
2022/07/21 05:05:02;;;;;;;12.37;4.97;;;;;;;21.35;49.55;100507.49;124289;1099;104160;-77
2022/07/21 05:07:33;;;;;;;12.33;5.10;;;;;;;21.40;49.86;100511.92;124224;1099;104274;-79
2022/07/21 05:10:09;;;;;;;13.37;5.50;;;;;;;21.43;49.14;100502.09;124289;1099;104338;-79
2022/07/21 05:12:40;;;;;;;10.97;5.03;;;;;;;21.51;49.43;100508.27;124526;1098;104456;-78
2022/07/21 05:15:13;;;;;;;12.03;5.10;;;;;;;21.59;49.51;100518.00;124379;1099;104185;-78
2022/07/21 05:17:45;;;;;;;14.40;5.10;;;;;;;21.63;49.15;100522.39;125757;1099;104165;-79
2022/07/21 05:20:16;;;;;;;11.47;4.80;;;;;;;21.64;49.17;100522.38;124749;1099;104702;-78
2022/07/21 05:22:48;;;;;;;12.53;4.90;;;;;;;21.65;48.77;100523.28;124859;1099;104354;-79
2022/07/21 05:25:21;;;;;;;14.77;5.13;;;;;;;21.67;48.96;100519.68;125808;1098;104190;-83
2022/07/21 05:27:56;;;;;;;7.93;4.57;;;;;;;21.68;48.83;100526.80;125789;1099;104814;-79
2022/07/21 05:30:28;;;;;;;13.40;5.10;;;;;;;21.76;49.39;100525.86;125799;1099;104107;-81
2022/07/21 05:33:03;;;;;;;12.27;5.10;;;;;;;21.81;48.78;100522.22;125938;1099;104207;-78
2022/07/21 05:35:36;;;;;;;9.23;4.63;;;;;;;21.85;49.34;100520.42;125028;1100;104296;-79
2022/07/21 05:38:09;;;;;;;9.95;4.60;;;;;;;21.89;48.74;100532.83;124512;1102;104162;-77
2022/07/21 05:40:47;;;;;;;11.77;4.70;;;;;;;21.94;49.06;100530.10;125363;1102;102335;-79
2022/07/21 05:43:20;;;;;;;8.38;4.70;;;;;;;21.95;49.08;100535.43;124975;1102;102864;-79
2022/07/21 05:45:51;;;;;;;7.30;4.77;;;;;;;21.98;49.10;100529.18;125159;1103;104188;-79
2022/07/21 05:48:24;;;;;;;13.87;5.03;;;;;;;22.01;48.83;100537.16;125247;1102;104345;-80
2022/07/21 05:51:10;;;;;;;12.98;4.83;;;;;;;22.05;49.38;100536.23;125092;1102;103301;-82
2022/07/21 05:53:48;;;;;;;12.83;5.17;;;;;;;22.10;49.09;100530.84;125427;1102;103207;-79
2022/07/21 05:56:20;;;;;;;11.43;5.00;;;;;;;22.12;49.46;100532.58;125308;1102;103629;-81
2022/07/21 05:58:55;;;;;;;11.60;5.37;;;;;;;22.19;49.14;100531.61;125370;1103;103147;-81
2022/07/21 06:01:29;;;;;;;11.97;4.93;;;;;;;22.22;48.72;100539.59;125242;1102;104117;-81
2022/07/21 06:04:04;;;;;;;17.70;4.77;;;;;;;22.22;48.63;100542.27;125215;1102;104085;-81
2022/07/21 06:09:38;;;;;;;10.25;4.85;;;;;;;22.17;49.34;100541.41;126014;1099;104111;-83
2022/07/21 06:12:40;;;;;;;12.33;4.90;;;;;;;22.25;48.77;100541.33;125446;1102;104156;-81
2022/07/21 06:15:28;;;;;;;;;;;;;;;22.31;48.95;100543.97;125979;1099;104198;-82
2022/07/21 06:18:22;;;;;;;9.13;4.63;;;;;;;22.34;48.47;100545.73;125599;1099;110047;-81
2022/07/21 06:20:58;;;;;;;13.60;5.23;;;;;;;22.36;48.27;100535.89;125899;1099;104290;-80
2022/07/21 06:23:52;;;;;;;12.17;4.80;;;;;;;22.34;49.14;100527.02;125614;1099;104322;-77
2022/07/21 06:26:29;;;;;;;8.40;4.73;;;;;;;22.44;48.42;100540.25;125559;1099;104219;-79
2022/07/21 06:29:08;;;;;;;11.73;5.10;;;;;;;22.47;49.42;100542.01;125753;1099;104234;-77
2022/07/21 06:31:56;;;;;;;10.40;4.83;;;;;;;22.50;49.28;100536.63;125652;1099;102182;-78
2022/07/21 06:34:28;;;;;;;10.97;5.17;;;;;;;22.52;49.08;100529.45;125175;1102;102775;-77
2022/07/21 06:37:15;;;;;;;10.85;4.72;;;;;;;22.57;48.88;100538.29;125682;1099;104165;-78
2022/07/21 06:42:37;;;;;;;12.50;5.53;;;;;;;22.70;48.71;100522.08;125644;1099;104185;-77
2022/07/21 06:45:21;;;;;;;14.60;5.33;;;;;;;22.77;48.44;100527.33;126415;1099;104227;-77
2022/07/21 06:48:12;;;;;;;10.30;5.13;;;;;;;22.87;48.19;100520.04;125675;1099;102484;-78
2022/07/21 06:50:49;;;;;;;10.77;5.07;;;;;;;22.95;47.35;100527.95;125304;1102;104793;-79
2022/07/21 06:53:44;;;;;;;8.97;4.67;;;;;;;22.99;47.45;100527.02;125677;1102;104076;-78
2022/07/21 06:56:39;;;;;;;9.33;4.50;;;;;;;23.05;46.53;100518.02;126262;1102;101675;-78
2022/07/21 06:59:17;;;;;;;9.40;4.30;;;;;;;23.18;46.62;100522.28;125897;1102;112185;-79
2022/07/21 07:02:20;;;;;;;11.50;4.20;;;;;;;23.33;46.04;100523.84;125990;1102;102146;-78
2022/07/21 07:05:12;;;;;;;9.00;4.37;;;;;;;23.46;45.73;100513.80;126151;1102;102160;-79
2022/07/21 07:07:58;;;;;;;8.57;4.23;;;;;;;23.62;45.73;100507.28;125258;1102;104215;-77
2022/07/21 07:10:32;;;;;;;11.13;4.27;;;;;;;23.81;45.29;100507.81;125747;1099;104165;-77
2022/07/21 07:13:15;;;;;;;9.00;3.90;;;;;;;23.95;44.09;100512.95;126990;1098;102120;-78
2022/07/21 07:15:58;;;;;;;9.87;4.30;;;;;;;24.08;44.00;100499.30;125210;1102;104181;-78
2022/07/21 07:18:53;;;;;;;;;;;;;;;;;;;;;
2022/07/21 07:21:36;;;;;;;9.40;3.90;;;;;;;24.26;42.25;100500.70;125703;1099;104933;-78
2022/07/21 07:24:48;;;;;;;9.77;3.60;;;;;;;24.35;41.11;100505.88;125552;1099;104204;-77
2022/07/21 07:27:28;;;;;;;11.57;3.63;;;;;;;24.40;40.43;100501.28;125575;1099;104182;-78
2022/07/21 07:30:02;;;;;;;12.50;3.87;;;;;;;24.51;40.37;100501.05;125690;1099;102136;-77
2022/07/21 07:32:41;;;;;;;8.80;3.70;;;;;;;24.48;40.39;100509.17;126140;1099;104249;-79
2022/07/21 07:35:17;;;;;;;;;;;;;;;24.58;40.26;100502.73;125715;1099;104176;-78
2022/07/21 07:38:19;;;;;;;5.87;3.30;;;;;;;24.73;40.34;100493.47;125626;1099;104194;-78
2022/07/21 07:41:30;;;;;;;8.83;3.70;;;;;;;25.06;37.73;100510.56;125839;1099;102426;-78
2022/07/21 07:44:20;;;;;;;8.93;3.30;;;;;;;25.23;38.12;100501.23;125960;1099;102749;-81
2022/07/21 07:47:10;;;;;;;8.87;3.40;;;;;;;25.44;37.76;100505.19;125814;1099;104157;-78
2022/07/21 07:49:42;;;;;;;7.97;3.63;;;;;;;25.64;37.90;100505.54;125744;1099;104205;-78
2022/07/21 07:52:23;;;;;;;8.97;3.30;;;;;;;25.78;37.55;100499.80;126339;1099;101763;-79
2022/07/21 07:55:12;;;;;;;11.40;3.23;;;;;;;26.01;37.15;100499.19;125324;1099;102252;-79
2022/07/21 07:57:58;;;;;;;9.17;3.63;;;;;;;26.30;35.91;100505.55;126734;1099;104166;-79
2022/07/21 08:00:35;;;;;;;7.90;3.30;;;;;;;26.36;35.73;100507.16;127082;1098;117833;-78
2022/07/21 08:03:27;;;;;;;6.80;3.23;;;;;;;26.45;34.99;100514.95;125911;1099;102211;-78
2022/07/21 08:06:12;;;;;;;7.93;2.93;;;;;;;26.45;34.99;100501.50;125758;1099;104182;-79
2022/07/21 08:09:01;;;;;;;6.53;3.43;;;;;;;26.51;35.46;100504.02;125704;1099;104278;-79
2022/07/21 08:11:46;;;;;;;11.50;3.10;;;;;;;26.71;34.52;100494.48;126696;1098;101770;-78
2022/07/21 08:14:22;;;;;;;5.13;2.70;;;;;;;26.78;34.29;100504.11;126800;1098;102740;-79
2022/07/21 08:17:04;;;;;;;5.10;2.70;;;;;;;26.72;33.02;100507.00;126685;1098;102670;-78
2022/07/21 08:19:48;;;;;;;9.67;3.20;;;;;;;26.73;33.74;100495.31;125365;1099;104092;-78
2022/07/21 08:22:21;;;;;;;5.00;2.73;;;;;;;26.88;33.43;100502.91;126001;1099;104224;-79
2022/07/21 08:24:59;;;;;;;5.33;2.50;;;;;;;26.94;33.23;100493.73;126618;1098;104204;-79
2022/07/21 08:27:42;;;;;;;7.10;3.00;;;;;;;26.94;31.84;100487.47;125846;1099;101955;-79
2022/07/21 08:30:21;;;;;;;8.53;2.70;;;;;;;27.01;32.25;100489.92;126527;1099;102673;-78
2022/07/21 08:32:59;;;;;;;5.73;2.93;;;;;;;27.17;32.46;100484.90;126628;1099;103265;-80
2022/07/21 08:39:41;;;;;;;8.67;2.87;;;;;;;27.43;31.47;100470.58;126073;1099;102670;-78
2022/07/21 08:42:33;;;;;;;4.77;2.50;;;;;;;27.64;30.69;100476.14;125219;1099;104291;-76
2022/07/21 08:45:30;;;;;;;7.57;2.60;;;;;;;27.57;31.12;100471.92;125600;1099;104214;-76
2022/07/21 08:48:27;;;;;;;4.47;2.33;;;;;;;27.55;30.49;100473.77;125735;1099;104316;-76
2022/07/21 08:51:03;;;;;;;5.93;2.33;;;;;;;27.48;30.49;100470.42;125715;1099;102341;-77
2022/07/21 08:53:51;;;;;;;6.43;2.30;;;;;;;27.47;30.52;100479.42;125658;1099;104271;-76
2022/07/21 08:56:33;;;;;;;7.90;2.53;;;;;;;27.50;29.91;100479.31;125689;1099;104211;-76
2022/07/21 08:59:08;;;;;;;5.40;2.40;;;;;;;27.57;29.90;100472.79;125551;1099;104313;-76
2022/07/21 09:01:50;;;;;;;6.03;2.30;;;;;;;27.55;29.52;100468.38;125721;1099;104166;-76
2022/07/21 09:04:47;;;;;;;5.03;2.37;;;;;;;27.53;27.69;100476.52;126038;1099;104188;-77
2022/07/21 09:07:24;;;;;;;6.07;1.90;;;;;;;27.45;27.44;100478.61;125809;1099;104169;-76
2022/07/21 09:10:28;;;;;;;6.33;2.17;;;;;;;27.33;28.66;100462.86;126639;1098;102481;-77
2022/07/21 09:13:12;;;;;;;4.67;2.00;;;;;;;27.24;28.00;100466.73;125769;1098;104159;-77
2022/07/21 09:15:53;;;;;;;4.20;2.30;;;;;;;27.23;28.95;100457.76;125240;1099;102473;-77
2022/07/21 09:18:30;;;;;;;6.83;2.37;;;;;;;27.43;28.98;100465.19;125363;1099;104217;-77
2022/07/21 09:21:06;;;;;;;8.33;2.13;;;;;;;27.50;28.65;100449.67;125949;1102;101810;-77
2022/07/21 09:24:00;;;;;;;5.17;2.00;;;;;;;27.46;28.67;100450.73;126145;1102;103475;-78
2022/07/21 09:27:05;;;;;;;9.87;2.50;;;;;;;27.37;28.59;100461.84;126014;1102;102408;-77
2022/07/21 09:29:44;;;;;;;3.03;1.97;;;;;;;27.48;27.02;100456.08;124981;1099;104335;-77
2022/07/21 09:32:23;;;;;;;4.17;2.30;;;;;;;27.49;27.84;100455.13;125213;1099;110776;-83
2022/07/21 09:34:59;;;;;;;7.97;1.97;;;;;;;27.51;27.65;100440.67;125282;1100;104944;-83
2022/07/21 09:37:39;;;;;;;5.83;2.20;;;;;;;27.50;27.59;100446.98;125003;1099;102150;-80
2022/07/21 09:40:23;;;;;;;3.27;2.57;;;;;;;27.65;28.15;100436.61;125033;1099;104329;-79
2022/07/21 09:46:18;;;;;;;5.37;2.43;;;;;;;27.88;27.61;100443.86;125624;1101;104185;-79
2022/07/21 09:49:06;;;;;;;4.20;2.27;;;;;;;27.97;28.14;100440.82;126048;1102;102145;-79
2022/07/21 09:51:43;;;;;;;11.97;2.50;;;;;;;27.97;27.71;100443.52;125671;1102;103045;-79
2022/07/21 09:54:22;;;;;;;9.20;2.33;;;;;;;27.95;27.66;100434.62;126178;1102;101877;-79
2022/07/21 09:57:02;;;;;;;11.03;2.60;;;;;;;27.99;27.67;100425.48;125323;1102;104345;-79
2022/07/21 09:59:44;;;;;;;6.73;2.40;;;;;;;28.03;28.03;100432.50;125324;1102;102262;-79
2022/07/21 10:02:20;;;;;;;8.03;2.23;;;;;;;27.96;27.64;100423.77;125118;1102;103799;-78
2022/07/21 10:05:00;;;;;;;6.57;2.20;;;;;;;27.92;27.46;100424.78;125114;1102;104213;-78
2022/07/21 10:07:37;;;;;;;6.27;2.07;;;;;;;27.92;27.34;100430.17;125606;1102;104464;-79
2022/07/21 10:10:16;;;;;;;8.15;2.05;;;;;;;27.97;27.56;100430.94;125581;1102;101893;-78
2022/07/21 10:15:58;;;;;;;3.70;2.07;;;;;;;27.89;27.01;100424.93;126102;1102;102097;-78
2022/07/21 10:18:48;;;;;;;6.97;2.43;;;;;;;27.82;26.91;100430.61;125618;1102;102992;-78
2022/07/21 10:21:30;;;;;;;5.37;1.90;;;;;;;27.79;26.95;100426.20;125085;1102;104333;-79
2022/07/21 10:24:07;;;;;;;10.40;2.23;;;;;;;27.86;27.34;100430.44;125243;1099;102761;-77
2022/07/21 10:26:40;;;;;;;7.67;2.70;;;;;;;27.86;26.84;100419.66;126182;1099;102820;-77
2022/07/21 10:29:14;;;;;;;5.80;2.20;;;;;;;27.85;26.68;100420.58;126671;1098;104246;-76
2022/07/21 10:31:48;;;;;;;5.07;2.60;;;;;;;27.85;27.31;100420.58;125784;1099;104380;-76
2022/07/21 10:34:37;;;;;;;13.07;2.30;;;;;;;27.91;27.03;100406.87;126552;1098;102305;-76
2022/07/21 10:37:13;;;;;;;4.73;2.00;;;;;;;27.92;27.15;100414.00;125658;1099;104201;-75
2022/07/21 10:39:49;;;;;;;5.50;2.07;;;;;;;28.00;26.74;100410.17;125748;1097;102745;-77
2022/07/21 10:42:46;;;;;;;5.00;1.90;;;;;;;27.98;26.83;100419.19;126647;1098;102416;-76
2022/07/21 10:45:32;;;;;;;11.85;2.50;;;;;;;28.00;26.80;100407.48;126299;1099;102989;-76
2022/07/21 10:48:35;;;;;;;8.80;2.20;;;;;;;27.98;26.83;100408.41;125628;1099;103322;-78
2022/07/21 10:51:40;;;;;;;6.47;2.17;;;;;;;27.92;27.16;100397.81;126328;1099;104188;-76
2022/07/21 10:54:31;;;;;;;4.17;1.80;;;;;;;27.95;27.22;100391.47;126454;1098;110246;-79
2022/07/21 10:57:35;;;;;;;6.77;2.13;;;;;;;27.99;26.84;100395.83;126549;1099;102426;-80
2022/07/21 11:00:29;;;;;;;9.67;2.40;;;;;;;28.07;26.28;100398.23;127299;1098;102939;-79
2022/07/21 11:03:30;;;;;;;5.63;1.97;;;;;;;28.16;26.16;100397.88;126773;1098;101769;-79
2022/07/21 11:06:32;;;;;;;3.63;1.53;;;;;;;28.14;25.72;100397.03;125109;1099;104271;-78
2022/07/21 11:09:16;;;;;;;3.90;1.53;;;;;;;28.25;26.13;100400.21;126537;1098;104086;-79
2022/07/21 11:12:16;;;;;;;4.73;1.70;;;;;;;28.22;25.18;100394.94;126428;1099;101848;-78
2022/07/21 11:15:06;;;;;;;4.27;1.77;;;;;;;28.11;24.53;100402.54;125843;1099;118189;-79
2022/07/21 11:17:50;;;;;;;;;;;;;;;28.09;24.69;100382.86;127318;1098;104073;-79
2022/07/21 11:20:39;;;;;;;6.37;1.83;;;;;;;28.11;24.85;100391.75;125331;1102;104287;-78
2022/07/21 11:23:22;;;;;;;4.00;1.53;;;;;;;28.19;24.96;100395.05;125273;1099;104303;-78
2022/07/21 11:26:28;;;;;;;5.77;1.50;;;;;;;28.27;24.78;100390.23;126842;1098;104246;-77
2022/07/21 11:33:17;;;;;;;;;;;;;;;;;;;;;
2022/07/21 11:36:17;;;;;;;3.90;1.70;;;;;;;28.30;24.61;100381.14;124991;1102;104191;-78
2022/07/21 11:39:40;;;;;;;8.23;2.13;;;;;;;28.27;24.57;100370.47;124796;1105;104399;-78
2022/07/21 11:46:18;;;;;;;10.63;2.80;;;;;;;28.35;24.90;100362.94;124550;1109;104227;-78
2022/07/21 11:53:38;;;;;;;;;;;;;;;;;;;;;
2022/07/21 11:56:30;;;;;;;8.90;2.20;;;;;;;28.58;23.56;100345.84;124499;1109;110009;-78
2022/07/21 11:59:40;;;;;;;;;;;;;;;;;;;;;
2022/07/21 12:03:01;;;;;;;;;;;;;;;;;;;;;
2022/07/21 12:06:22;;;;;;;;;;;;;;;;;;;;;
2022/07/21 12:09:16;;;;;;;3.97;1.80;;;;;;;28.58;23.46;100343.14;125753;1102;102109;-79
2022/07/21 12:12:30;;;;;;;5.90;1.87;;;;;;;28.65;23.70;100339.23;125423;1102;102312;-79
2022/07/21 12:15:55;;;;;;;7.57;1.57;;;;;;;28.75;23.82;100345.14;125120;1102;104239;-80
2022/07/21 12:18:49;;;;;;;;;;;;;;;28.75;23.30;100341.53;125798;1098;102860;-78
2022/07/21 12:22:04;;;;;;;4.67;1.85;;;;;;;28.72;23.55;100337.17;125147;1098;104271;-79
2022/07/21 12:28:43;;;;;;;10.37;2.17;;;;;;;28.77;23.23;100336.97;125572;1100;104173;-79
2022/07/21 12:31:46;;;;;;;5.10;1.75;;;;;;;28.71;23.69;100330.00;126244;1098;101809;-79
2022/07/21 12:35:09;;;;;;;6.77;1.90;;;;;;;28.76;23.44;100327.11;125062;1099;104230;-79
2022/07/21 12:38:04;;;;;;;4.83;1.87;;;;;;;28.81;23.13;100316.98;125023;1099;108228;-78
2022/07/21 12:40:58;;;;;;;2.07;1.60;;;;;;;28.80;23.47;100316.11;125098;1099;103576;-76
2022/07/21 12:43:41;;;;;;;4.40;1.70;;;;;;;28.90;23.25;100321.12;125990;1099;101729;-77
2022/07/21 12:46:20;;;;;;;3.93;1.63;;;;;;;28.98;23.48;100319.81;125043;1099;104169;-77